createdAt,value
2018-04-10T00:00:57.053Z,7.50
2018-04-10T00:03:24.574Z,7.40
2018-04-10T00:05:52.094Z,7.30
2018-04-10T00:08:19.644Z,7.30
2018-04-10T00:10:47.178Z,7.20
2018-04-10T00:13:14.699Z,7.20
2018-04-10T00:15:42.997Z,7.10
2018-04-10T00:18:10.495Z,7.00
2018-04-10T00:20:38.006Z,7.00
2018-04-10T00:23:05.558Z,7.00
2018-04-10T00:25:33.141Z,7.10
2018-04-10T00:28:00.678Z,7.10
2018-04-10T00:30:30.679Z,7.10
2018-04-10T00:32:58.973Z,7.10
2018-04-10T00:35:26.501Z,7.00
2018-04-10T00:37:54.057Z,7.00
2018-04-10T00:40:21.571Z,7.00
2018-04-10T00:42:49.085Z,6.90
2018-04-10T00:45:17.391Z,6.80
2018-04-10T00:47:44.925Z,6.80
2018-04-10T00:50:13.196Z,6.60
2018-04-10T00:52:41.521Z,6.50
2018-04-10T00:55:09.022Z,6.40
2018-04-10T00:57:36.541Z,6.40
2018-04-10T01:00:04.079Z,6.30
2018-04-10T01:02:31.606Z,6.20
2018-04-10T01:04:59.906Z,6.10
2018-04-10T01:07:27.440Z,6.10
2018-04-10T01:09:55.744Z,6.20
2018-04-10T01:12:23.282Z,6.20
2018-04-10T01:14:51.583Z,6.10
2018-04-10T01:17:19.090Z,6.10
2018-04-10T01:19:46.610Z,6.20
2018-04-10T01:22:14.156Z,6.20
2018-04-10T01:24:41.687Z,6.20
2018-04-10T01:27:09.981Z,6.20
2018-04-10T01:29:38.285Z,6.30
2018-04-10T01:32:05.807Z,6.20
2018-04-10T01:34:34.092Z,6.30
2018-04-10T01:37:02.427Z,6.30
2018-04-10T01:39:29.941Z,6.30
2018-04-10T01:41:57.462Z,6.40
2018-04-10T01:44:25.012Z,6.40
2018-04-10T01:46:52.530Z,6.50
2018-04-10T01:49:20.037Z,6.60
2018-04-10T01:51:47.587Z,6.60
2018-04-10T01:54:15.105Z,6.70
2018-04-10T01:56:42.616Z,6.70
2018-04-10T01:59:10.160Z,6.80
2018-04-10T02:01:37.690Z,6.90
2018-04-10T02:04:05.201Z,7.00
2018-04-10T02:06:33.500Z,7.30
2018-04-10T02:09:01.022Z,7.30
2018-04-10T02:27:05.307Z,8.10
2018-04-10T02:29:32.840Z,8.00
2018-04-10T02:32:00.377Z,7.90
2018-04-10T02:34:28.660Z,7.70
2018-04-10T02:36:56.962Z,7.60
2018-04-10T02:39:24.471Z,7.60
2018-04-10T02:41:52.002Z,7.50
2018-04-10T02:44:19.552Z,7.40
2018-04-10T02:46:47.073Z,7.40
2018-04-10T02:49:15.356Z,7.20
2018-04-10T02:51:43.665Z,7.20
2018-04-10T02:54:11.170Z,7.10
2018-04-10T02:56:38.681Z,7.10
2018-04-10T02:59:06.210Z,7.10
2018-04-10T03:01:33.760Z,7.10
2018-04-10T03:04:02.046Z,7.10
2018-04-10T03:06:29.587Z,7.10
2018-04-10T03:08:57.915Z,7.10
2018-04-10T03:11:25.406Z,7.10
2018-04-10T03:13:52.935Z,7.20
2018-04-10T03:16:20.466Z,7.20
2018-04-10T03:18:48.013Z,7.30
2018-04-10T03:21:16.312Z,7.40
2018-04-10T03:23:43.816Z,7.40
2018-04-10T03:26:11.322Z,7.40
2018-04-10T03:28:38.874Z,7.40
2018-04-10T03:31:06.400Z,7.40
2018-04-10T03:33:33.912Z,7.30
2018-04-10T03:36:01.457Z,7.20
2018-04-10T03:38:28.985Z,7.20
2018-04-10T03:40:57.285Z,7.10
2018-04-10T03:43:24.811Z,7.00
2018-04-10T03:45:52.332Z,7.00
2018-04-10T03:48:19.843Z,7.00
2018-04-10T03:50:49.052Z,7.00
2018-04-10T03:53:17.337Z,7.00
2018-04-10T03:55:44.914Z,7.00
2018-04-10T03:58:13.179Z,7.10
2018-04-10T04:00:40.683Z,7.10
2018-04-10T04:03:08.214Z,7.20
2018-04-10T04:05:35.770Z,7.20
2018-04-10T04:08:03.290Z,7.20
2018-04-10T04:10:31.559Z,7.30
2018-04-10T04:12:59.101Z,7.30
2018-04-10T04:15:26.607Z,7.30
2018-04-10T04:17:54.118Z,7.30
2018-04-10T04:20:33.497Z,7.30
2018-04-10T04:23:01.059Z,7.30
2018-04-10T04:25:28.977Z,7.30
2018-04-10T04:27:56.519Z,7.40
2018-04-10T04:30:24.523Z,7.30
2018-04-10T04:32:52.112Z,7.40
2018-04-10T04:35:19.653Z,7.40
2018-04-10T04:37:47.924Z,7.40
2018-04-10T04:40:16.225Z,7.40
2018-04-10T04:42:43.767Z,7.40
2018-04-10T04:45:12.412Z,7.40
2018-04-10T04:47:40.755Z,7.40
2018-04-10T04:50:08.303Z,7.40
2018-04-10T04:52:35.810Z,7.40
2018-04-10T04:55:03.314Z,7.40
2018-04-10T04:57:31.625Z,7.40
2018-04-10T04:59:59.638Z,7.30
2018-04-10T05:02:27.212Z,7.40
2018-04-10T05:04:55.536Z,7.30
2018-04-10T05:07:23.066Z,7.30
2018-04-10T05:09:50.562Z,7.40
2018-04-10T05:12:19.616Z,7.40
2018-04-10T05:14:47.209Z,7.40
2018-04-10T05:17:14.738Z,7.40
2018-04-10T05:19:42.288Z,7.50
2018-04-10T05:22:10.565Z,7.60
2018-04-10T05:24:38.097Z,7.60
2018-04-10T05:27:05.719Z,7.60
2018-04-10T05:29:33.224Z,7.70
2018-04-10T05:32:00.745Z,7.80
2018-04-10T05:34:28.309Z,7.80
2018-04-10T05:36:55.832Z,7.80
2018-04-10T05:39:23.348Z,7.80
2018-04-10T05:41:51.679Z,7.80
2018-04-10T05:44:19.202Z,7.80
2018-04-10T05:46:47.493Z,7.90
2018-04-10T05:49:15.033Z,7.90
2018-04-10T05:51:43.318Z,8.00
2018-04-10T05:54:11.596Z,8.10
2018-04-10T05:56:39.912Z,8.30
2018-04-10T05:59:07.432Z,8.30
2018-04-10T06:01:35.716Z,8.60
2018-04-10T06:04:03.263Z,8.60
2018-04-10T06:06:31.554Z,9.00
2018-04-10T06:08:59.829Z,9.30
2018-04-10T06:11:27.363Z,9.30
2018-04-10T06:13:54.903Z,9.50
2018-04-10T06:16:22.420Z,9.80
2018-04-10T06:18:49.978Z,10.00
2018-04-10T06:21:17.504Z,10.30
2018-04-10T06:23:45.790Z,10.80
2018-04-10T06:26:14.105Z,10.90
2018-04-10T06:28:41.624Z,10.90
2018-04-10T06:31:09.916Z,11.30
2018-04-10T06:33:37.486Z,11.30
2018-04-10T06:36:05.010Z,11.50
2018-04-10T06:38:33.303Z,11.90
2018-04-10T06:41:01.618Z,12.10
2018-04-10T06:43:29.153Z,12.10
2018-04-10T06:45:56.667Z,12.30
2018-04-10T06:48:24.233Z,12.50
2018-04-10T06:50:51.752Z,12.90
2018-04-10T06:53:19.473Z,13.20
2018-04-10T06:55:47.799Z,13.90
2018-04-10T06:58:15.333Z,13.90
2018-04-10T07:00:42.854Z,14.20
2018-04-10T07:03:10.403Z,14.40
2018-04-10T07:05:37.940Z,14.70
2018-04-10T07:08:05.459Z,14.90
2018-04-10T07:10:33.010Z,15.20
2018-04-10T07:13:01.295Z,15.60
2018-04-10T07:15:29.192Z,15.60
2018-04-10T07:17:56.754Z,15.90
2018-04-10T07:20:25.047Z,16.30
2018-04-10T07:22:52.585Z,16.30
2018-04-10T07:25:20.136Z,16.50
2018-04-10T07:27:47.688Z,16.80
2018-04-10T07:30:15.212Z,17.20
2018-04-10T07:32:43.521Z,18.10
2018-04-10T07:35:11.040Z,18.00
2018-04-10T07:37:38.560Z,18.20
2018-04-10T07:40:06.106Z,18.20
2018-04-10T07:42:33.646Z,18.20
2018-04-10T07:45:01.934Z,18.90
2018-04-10T07:47:29.480Z,18.90
2018-04-10T07:49:57.762Z,19.20
2018-04-10T07:52:25.278Z,19.20
2018-04-10T07:54:52.819Z,19.20
2018-04-10T07:57:20.332Z,19.10
2018-04-10T07:59:47.843Z,18.80
2018-04-10T08:02:15.380Z,18.70
2018-04-10T08:04:42.913Z,18.50
2018-04-10T08:07:10.433Z,18.30
2018-04-10T08:09:37.998Z,18.20
2018-04-10T08:12:05.525Z,18.10
2018-04-10T08:14:33.031Z,18.00
2018-04-10T08:17:01.352Z,17.80
2018-04-10T08:19:28.874Z,17.80
2018-04-10T08:21:57.156Z,17.70
2018-04-10T08:24:24.726Z,17.60
2018-04-10T08:26:52.535Z,17.60
2018-04-10T08:29:20.055Z,17.60
2018-04-10T08:31:47.600Z,17.70
2018-04-10T08:34:15.120Z,17.70
2018-04-10T08:36:42.746Z,17.80
2018-04-10T08:39:10.303Z,18.00
2018-04-10T08:41:37.817Z,18.10
2018-04-10T08:44:06.119Z,18.40
2018-04-10T08:46:33.661Z,18.30
2018-04-10T08:49:01.954Z,18.60
2018-04-10T08:51:29.477Z,18.50
2018-04-10T08:53:57.016Z,18.70
2018-04-10T08:56:24.521Z,18.90
2018-04-10T08:58:52.800Z,19.20
2018-04-10T09:01:20.352Z,19.20
2018-04-10T09:03:48.632Z,19.40
2018-04-10T09:06:16.917Z,19.60
2018-04-10T09:08:44.452Z,19.50
2018-04-10T09:11:12.740Z,19.50
2018-04-10T09:13:41.018Z,19.40
2018-04-10T09:16:09.344Z,19.30
2018-04-10T09:18:36.868Z,19.30
2018-04-10T09:21:04.404Z,19.30
2018-04-10T09:23:32.735Z,19.40
2018-04-10T09:26:00.255Z,19.40
2018-04-10T09:28:28.657Z,19.50
2018-04-10T09:30:56.199Z,19.50
2018-04-10T09:33:23.726Z,19.60
2018-04-10T09:35:51.611Z,19.70
2018-04-10T09:38:19.171Z,19.90
2018-04-10T09:40:47.451Z,20.30
2018-04-10T09:43:14.959Z,20.30
2018-04-10T09:45:42.498Z,20.40
2018-04-10T09:48:10.007Z,20.40
2018-04-10T09:50:38.313Z,20.50
2018-04-10T09:53:05.878Z,20.50
2018-04-10T09:55:33.454Z,20.60
2018-04-10T09:58:00.978Z,20.80
2018-04-10T10:00:35.088Z,20.90
2018-04-10T10:03:03.379Z,20.80
2018-04-10T10:05:30.908Z,20.80
2018-04-10T10:07:58.447Z,20.70
2018-04-10T10:10:25.959Z,20.80
2018-04-10T10:12:53.487Z,21.10
2018-04-10T10:15:21.818Z,21.30
2018-04-10T10:17:49.336Z,21.30
2018-04-10T10:20:17.627Z,21.20
2018-04-10T10:22:45.172Z,21.20
2018-04-10T10:25:13.456Z,20.90
2018-04-10T10:27:41.731Z,20.90
2018-04-10T10:30:10.049Z,21.00
2018-04-10T10:32:37.581Z,21.00
2018-04-10T10:35:05.104Z,21.10
2018-04-10T10:37:32.644Z,21.00
2018-04-10T10:40:00.166Z,21.00
2018-04-10T10:42:27.676Z,21.00
2018-04-10T10:44:55.219Z,21.10
2018-04-10T10:47:22.724Z,21.10
2018-04-10T10:49:50.252Z,21.00
2018-04-10T10:52:17.802Z,21.10
2018-04-10T10:54:45.315Z,21.10
2018-04-10T10:57:12.829Z,21.10
2018-04-10T10:59:40.380Z,21.10
2018-04-10T11:02:07.891Z,21.20
2018-04-10T11:04:35.413Z,21.30
2018-04-10T11:07:02.970Z,21.30
2018-04-10T11:09:30.488Z,21.30
2018-04-10T11:11:58.025Z,21.10
2018-04-10T11:14:25.565Z,21.20
2018-04-10T11:16:53.843Z,21.50
2018-04-10T11:19:22.124Z,21.70
2018-04-10T11:21:49.681Z,21.70
2018-04-10T11:24:17.957Z,22.00
2018-04-10T11:26:46.240Z,22.00
2018-04-10T11:29:13.776Z,22.00
2018-04-10T11:31:42.073Z,21.70
2018-04-10T11:34:10.358Z,21.80
2018-04-10T11:36:37.892Z,21.80
2018-04-10T11:39:06.179Z,22.00
2018-04-10T11:41:34.454Z,22.10
2018-04-10T11:44:02.752Z,22.50
2018-04-10T11:46:30.273Z,22.50
2018-04-10T11:48:57.787Z,22.50
2018-04-10T11:51:25.353Z,22.60
2018-04-10T11:53:52.863Z,22.80
2018-04-10T11:56:21.147Z,23.30
2018-04-10T11:58:49.457Z,23.30
2018-04-10T12:01:16.968Z,23.20
2018-04-10T12:03:45.245Z,23.60
2018-04-10T12:06:13.574Z,23.70
2018-04-10T12:08:41.090Z,23.70
2018-04-10T12:11:09.380Z,23.80
2018-04-10T12:13:36.926Z,23.80
2018-04-10T12:16:05.277Z,23.50
2018-04-10T12:18:32.744Z,23.40
2018-04-10T12:21:00.295Z,23.20
2018-04-10T12:23:27.813Z,23.00
2018-04-10T12:25:55.334Z,23.00
2018-04-10T12:28:23.656Z,23.00
2018-04-10T12:30:51.167Z,23.00
2018-04-10T12:33:19.452Z,23.00
2018-04-10T12:35:47.769Z,23.10
2018-04-10T12:38:15.297Z,23.10
2018-04-10T12:40:42.817Z,23.00
2018-04-10T12:43:11.137Z,23.00
2018-04-10T12:45:38.673Z,23.00
2018-04-10T12:48:06.955Z,23.00
2018-04-10T12:50:35.274Z,22.90
2018-04-10T12:53:02.794Z,22.80
2018-04-10T12:55:31.094Z,22.90
2018-04-10T12:57:58.627Z,22.90
2018-04-10T13:00:26.897Z,22.80
2018-04-10T13:02:55.177Z,22.50
2018-04-10T13:05:23.503Z,22.40
2018-04-10T13:07:51.018Z,22.40
2018-04-10T13:10:19.320Z,22.30
2018-04-10T13:12:46.847Z,22.30
2018-04-10T13:15:15.140Z,22.50
2018-04-10T13:17:42.658Z,22.50
2018-04-10T13:20:10.216Z,22.40
2018-04-10T13:22:37.727Z,22.40
2018-04-10T13:25:05.263Z,22.40
2018-04-10T13:27:33.570Z,22.40
2018-04-10T13:30:01.083Z,22.40
2018-04-10T13:32:28.596Z,22.40
2018-04-10T13:34:56.137Z,22.10
2018-04-10T13:37:23.668Z,21.80
2018-04-10T13:39:51.962Z,22.00
2018-04-10T13:42:19.517Z,21.90
2018-04-10T13:44:47.078Z,22.00
2018-04-10T13:47:14.594Z,21.80
2018-04-10T13:49:42.145Z,21.70
2018-04-10T13:52:09.959Z,21.70
2018-04-10T13:54:38.238Z,22.00
2018-04-10T13:57:05.797Z,22.00
2018-04-10T13:59:33.303Z,22.20
2018-04-10T14:02:00.832Z,22.40
2018-04-10T14:04:28.380Z,22.30
2018-04-10T14:06:55.912Z,22.30
2018-04-10T14:09:24.205Z,22.40
2018-04-10T14:11:52.521Z,22.40
2018-04-10T14:14:20.052Z,22.40
2018-04-10T14:16:47.577Z,22.20
2018-04-10T14:19:15.153Z,22.20
2018-04-10T14:21:43.436Z,22.10
2018-04-10T14:24:11.735Z,22.00
2018-04-10T14:26:39.284Z,22.00
2018-04-10T14:29:06.803Z,22.00
2018-04-10T14:31:34.327Z,22.10
2018-04-10T14:34:01.893Z,21.90
2018-04-10T14:36:29.403Z,21.70
2018-04-10T14:38:57.681Z,21.40
2018-04-10T14:41:26.008Z,21.50
2018-04-10T14:43:53.524Z,21.50
2018-04-10T14:46:21.045Z,21.70
2018-04-10T14:48:48.584Z,21.80
2018-04-10T14:51:16.104Z,21.90
2018-04-10T14:53:43.624Z,22.00
2018-04-10T14:56:11.165Z,22.00
2018-04-10T14:58:38.688Z,22.00
2018-04-10T15:01:06.209Z,22.00
2018-04-10T15:03:33.744Z,22.10
2018-04-10T15:06:01.288Z,22.00
2018-04-10T15:08:28.816Z,22.00
2018-04-10T15:10:56.355Z,22.00
2018-04-10T15:13:24.651Z,21.80
2018-04-10T15:15:52.166Z,21.80
2018-04-10T15:18:19.745Z,21.50
2018-04-10T15:20:48.031Z,21.20
2018-04-10T15:23:16.320Z,21.10
2018-04-10T15:25:43.860Z,21.10
2018-04-10T15:28:12.146Z,20.60
2018-04-10T15:30:40.441Z,20.20
2018-04-10T15:33:07.981Z,20.20
2018-04-10T15:35:36.252Z,19.90
2018-04-10T15:38:04.544Z,19.80
2018-04-10T15:40:32.097Z,19.80
2018-04-10T15:43:00.372Z,19.60
2018-04-10T15:45:28.664Z,19.50
2018-04-10T15:47:56.206Z,19.50
2018-04-10T15:50:24.483Z,19.40
2018-04-10T15:52:52.761Z,19.40
2018-04-10T15:55:21.106Z,19.40
2018-04-10T15:57:48.611Z,19.30
2018-04-10T16:00:16.123Z,19.40
2018-04-10T16:02:43.706Z,19.50
2018-04-10T16:05:11.201Z,19.50
2018-04-10T16:07:38.716Z,19.50
2018-04-10T16:10:07.022Z,19.40
2018-04-10T16:12:34.554Z,19.40
2018-04-10T16:15:02.845Z,19.20
2018-04-10T16:17:31.151Z,19.00
2018-04-10T16:19:58.663Z,19.00
2018-04-10T16:22:26.949Z,18.90
2018-04-10T16:24:55.266Z,18.70
2018-04-10T16:27:22.768Z,18.70
2018-04-10T16:29:50.267Z,18.70
2018-04-10T16:32:17.808Z,18.50
2018-04-10T16:34:46.111Z,18.50
2018-04-10T16:37:13.620Z,18.40
2018-04-10T16:39:41.168Z,18.50
2018-04-10T16:42:08.683Z,18.50
2018-04-10T16:44:36.188Z,18.60
2018-04-10T16:47:03.730Z,18.70
2018-04-10T16:49:31.240Z,18.70
2018-04-10T16:51:59.506Z,18.60
2018-04-10T16:54:27.817Z,18.40
2018-04-10T16:56:55.322Z,18.40
2018-04-10T16:59:22.853Z,18.50
2018-04-10T17:01:50.392Z,18.40
2018-04-10T17:04:17.903Z,18.30
2018-04-10T17:06:49.786Z,18.10
2018-04-10T17:09:17.320Z,18.10
2018-04-10T17:11:44.844Z,17.90
2018-04-10T17:14:12.802Z,17.90
2018-04-10T17:16:40.338Z,17.90
2018-04-10T17:19:07.871Z,18.00
2018-04-10T17:21:36.175Z,17.90
2018-04-10T17:24:03.703Z,17.90
2018-04-10T17:26:31.221Z,17.80
2018-04-10T17:28:58.758Z,17.70
2018-04-10T17:31:26.284Z,17.50
2018-04-10T17:33:54.564Z,17.40
2018-04-10T17:36:22.864Z,17.40
2018-04-10T17:38:50.409Z,17.40
2018-04-10T17:41:17.967Z,17.40
2018-04-10T17:43:46.280Z,17.10
2018-04-10T17:46:13.822Z,17.10
2018-04-10T17:48:41.357Z,16.80
2018-04-10T17:51:09.651Z,16.50
2018-04-10T17:53:37.915Z,16.30
2018-04-10T17:56:06.248Z,16.20
2018-04-10T17:58:33.755Z,16.10
2018-04-10T18:01:02.040Z,15.90
2018-04-10T18:03:29.560Z,15.80
2018-04-10T18:05:57.875Z,15.70
2018-04-10T18:08:25.444Z,15.70
2018-04-10T18:10:52.968Z,15.70
2018-04-10T18:13:21.265Z,15.30
2018-04-10T18:15:48.953Z,15.30
2018-04-10T18:18:17.315Z,15.50
2018-04-10T18:20:44.836Z,15.50
2018-04-10T18:23:13.150Z,15.80
2018-04-10T18:25:40.692Z,15.80
2018-04-10T18:28:08.980Z,16.20
2018-04-10T18:30:36.518Z,16.20
2018-04-10T18:33:04.850Z,16.50
2018-04-10T18:35:32.370Z,16.50
2018-04-10T18:38:00.634Z,16.60
2018-04-10T18:40:28.956Z,16.70
2018-04-10T18:42:56.469Z,16.60
2018-04-10T18:45:24.751Z,16.40
2018-04-10T18:47:53.062Z,16.30
2018-04-10T18:50:20.581Z,16.20
2018-04-10T18:52:48.165Z,16.10
2018-04-10T18:55:15.688Z,16.10
2018-04-10T18:57:43.238Z,16.10
2018-04-10T19:00:10.751Z,16.20
2018-04-10T19:02:38.303Z,16.10
2018-04-10T19:05:05.822Z,16.10
2018-04-10T19:07:33.378Z,15.90
2018-04-10T19:10:00.898Z,15.80
2018-04-10T19:12:28.424Z,15.90
2018-04-10T19:14:56.726Z,15.80
2018-04-10T19:17:24.263Z,15.80
2018-04-10T19:19:52.577Z,15.70
2018-04-10T19:22:20.102Z,15.70
2018-04-10T19:24:47.632Z,15.70
2018-04-10T19:27:15.162Z,15.80
2018-04-10T19:29:42.686Z,15.80
2018-04-10T19:32:10.223Z,15.70
2018-04-10T19:34:38.522Z,15.50
2018-04-10T19:37:06.088Z,15.50
2018-04-10T19:39:33.622Z,15.60
2018-04-10T19:42:01.937Z,15.40
2018-04-10T19:44:29.455Z,15.40
2018-04-10T19:46:57.773Z,15.40
2018-04-10T19:49:25.298Z,15.50
2018-04-10T19:51:53.612Z,15.40
2018-04-10T19:54:21.166Z,15.40
2018-04-10T19:56:49.398Z,15.30
2018-04-10T19:59:16.972Z,15.30
2018-04-10T20:01:45.248Z,15.20
2018-04-10T20:04:13.569Z,15.20
2018-04-10T20:06:41.109Z,15.20
2018-04-10T20:09:08.649Z,15.30
2018-04-10T20:11:36.171Z,15.20
2018-04-10T20:14:03.716Z,15.20
2018-04-10T20:16:31.269Z,14.80
2018-04-10T20:18:58.834Z,14.40
2018-04-10T20:21:26.375Z,14.00
2018-04-10T20:23:53.924Z,13.80
2018-04-10T20:26:21.473Z,13.70
2018-04-10T20:28:48.997Z,13.50
2018-04-10T20:31:17.303Z,13.40
2018-04-10T20:33:44.822Z,13.30
2018-04-10T20:36:12.681Z,13.30
2018-04-10T20:38:40.220Z,13.30
2018-04-10T20:41:07.788Z,13.40
2018-04-10T20:43:35.330Z,13.50
2018-04-10T20:46:02.858Z,13.40
2018-04-10T20:48:30.391Z,13.30
2018-04-10T20:50:57.921Z,13.30
2018-04-10T20:53:25.462Z,13.30
2018-04-10T20:55:52.992Z,13.50
2018-04-10T20:58:20.547Z,13.60
2018-04-10T21:00:48.837Z,13.50
2018-04-10T21:03:16.383Z,13.50
2018-04-10T21:05:44.673Z,13.20
2018-04-10T21:08:12.262Z,13.10
2018-04-10T21:10:39.782Z,12.90
2018-04-10T21:13:07.322Z,12.70
2018-04-10T21:15:35.647Z,12.50
2018-04-10T21:18:03.183Z,12.40
2018-04-10T21:20:30.741Z,12.40
2018-04-10T21:22:58.256Z,12.40
2018-04-10T21:25:25.785Z,12.30
2018-04-10T21:27:53.311Z,12.20
2018-04-10T21:30:20.908Z,12.10
2018-04-10T21:32:48.421Z,12.10
2018-04-10T21:35:16.705Z,12.30
2018-04-10T21:37:45.006Z,12.30
2018-04-10T21:40:12.541Z,12.30
2018-04-10T21:42:46.602Z,12.40
2018-04-10T21:45:14.120Z,12.40
2018-04-10T21:47:41.665Z,12.50
2018-04-10T21:50:09.977Z,12.50
2018-04-10T21:52:37.562Z,12.50
2018-04-10T21:55:05.077Z,12.30
2018-04-10T21:57:32.642Z,12.20
2018-04-10T22:00:00.187Z,12.10
2018-04-10T22:19:51.083Z,11.70
2018-04-10T22:22:18.619Z,11.90
2018-04-10T22:24:46.157Z,12.00
2018-04-10T22:27:13.716Z,12.10
2018-04-10T22:29:41.246Z,12.20
2018-04-10T22:32:08.795Z,12.00
2018-04-10T22:34:37.091Z,11.60
2018-04-10T22:37:04.617Z,11.50
2018-04-10T22:39:32.138Z,11.40
2018-04-10T22:41:59.707Z,11.20
2018-04-10T22:44:28.027Z,10.90
2018-04-10T22:46:55.562Z,10.90
2018-04-10T22:49:23.110Z,10.80
2018-04-10T22:51:51.428Z,10.60
2018-04-10T22:54:25.698Z,10.50
2018-04-10T22:56:53.992Z,10.40
2018-04-10T22:59:21.525Z,10.40
2018-04-10T23:01:49.846Z,10.20
2018-04-10T23:04:17.378Z,10.20
2018-04-10T23:06:45.667Z,10.10
2018-04-10T23:09:13.230Z,10.10
2018-04-10T23:11:40.752Z,10.10
2018-04-10T23:14:08.297Z,10.00
2018-04-10T23:16:35.863Z,10.00
2018-04-10T23:19:03.398Z,10.10
2018-04-10T23:21:30.920Z,10.10
2018-04-10T23:23:58.479Z,10.30
2018-04-10T23:26:26.010Z,10.30
2018-04-10T23:28:53.529Z,10.40
2018-04-10T23:31:21.090Z,10.20
2018-04-10T23:33:49.390Z,10.20
2018-04-10T23:36:16.919Z,10.10
2018-04-10T23:38:45.241Z,10.10
2018-04-10T23:41:12.765Z,10.10
2018-04-10T23:43:40.307Z,10.10
2018-04-10T23:46:08.616Z,9.90
2018-04-10T23:48:36.143Z,9.90
2018-04-10T23:51:04.453Z,9.80
2018-04-10T23:53:32.009Z,9.80
2018-04-10T23:55:59.543Z,9.70
2018-04-10T23:58:27.839Z,9.60
